Ana Sayfa
METAR-TAF:

METAR-TAF

Havaalanları :

Zvartnots Uluslararası Havalimanı

Erivan, Ermenistan

Enlem: 40-08-50N, Boylam: 044-23-45E, yükseklik: 865 m

Güncel hava durumu gözlemi

Rapor saat 09:30 UTC de 22 dakika önce yapıldı.
Rüzgar güney/güneydoğudan 5 kt
Sıcaklık 32°C
Nem 23%
Basınç 1014 hPa
Görüş mesafesi 10 km veya daha fazla
4000 ft yükseklikte az bulutlu, Kümülonimbus.

METAR: UDYZ 260930Z 15005KT 9999 FEW040CB 32/08 Q1014 R09/010070 NOSIG

Saat: 13:52 (09:52 UTC)

Tahmin

Rapor saat 05:02 UTC de 4 saat ve 50 dakika önce yapıldı.
Ayın 26'si saat 06 UTC'den ayın 27'si saat 06 UTC'ye kadar geçerli Tahmin
Rüzgar güneydan 6 kt
Görüş mesafesi 10 km veya daha fazla
4000 ft yükseklikte az bulutlu
Geçici
ayın 26'si saat 08 UTC'den ayın 26'si saat 18 UTC'ye kadar
Rüzgar değişken yönden 16 kt ve 26 kt'a kadar ani rüzgarlar
4000 ft yükseklikte parçalı bulutlu, Kümülonimbus.

TAF: UDYZ 260502Z 2606/2706 17006KT 9999 FEW040 TEMPO 2608/2618 VRB16G26KT SCT040CB

4.000'den fazla havaalanı için hava durumu gözlemleri ve tahminleri (METAR ve TAF raporları).

Kullanılabilir istasyonlar harita üzerinde sarı ve kırmızı noktalarla gösterilir.

İstasyonun adını görmek için fareyi noktanın üzerinde gezdirin.

Sonrasında hava gözlem ve tahminlerini görmek için tıklayın.

Haritayı değiştirmek için: yaklaştırmak için siyah artı işaretli yeşil düğmeye ve uzaklaştırmak için de eksi işaretli düğmeye hızla tıklayın; bitişik haritalar için yeşil okları kullanın.


METAR-TAF: